createdAt,value
2023-01-03T00:01:23.390Z,7.30
2023-01-03T00:03:50.488Z,7.20
2023-01-03T00:06:26.091Z,7.30
2023-01-03T00:08:54.420Z,7.20
2023-01-03T00:11:44.001Z,7.30
2023-01-03T00:14:14.549Z,7.20
2023-01-03T00:16:41.511Z,7.20
2023-01-03T00:19:09.902Z,7.20
2023-01-03T00:21:37.034Z,7.20
2023-01-03T00:24:05.129Z,7.10
2023-01-03T00:26:32.494Z,7.10
2023-01-03T00:28:59.705Z,7.10
2023-01-03T00:31:26.799Z,7.10
2023-01-03T00:33:53.545Z,7.00
2023-01-03T00:36:20.515Z,7.00
2023-01-03T00:38:47.413Z,7.00
2023-01-03T00:41:17.357Z,6.90
2023-01-03T00:43:45.657Z,6.90
2023-01-03T00:46:13.966Z,6.90
2023-01-03T00:48:40.870Z,6.90
2023-01-03T00:51:10.292Z,6.90
2023-01-03T00:53:38.944Z,6.90
2023-01-03T00:56:16.891Z,6.90
2023-01-03T00:58:43.770Z,6.90
2023-01-03T01:01:21.649Z,6.90
2023-01-03T01:03:56.808Z,6.80
2023-01-03T01:06:28.075Z,6.80
2023-01-03T01:08:57.501Z,6.90
2023-01-03T01:11:25.303Z,6.80
2023-01-03T01:13:52.786Z,6.80
2023-01-03T01:16:22.850Z,6.80
2023-01-03T01:18:51.037Z,6.70
2023-01-03T01:21:21.119Z,6.70
2023-01-03T01:23:48.192Z,6.60
2023-01-03T01:26:17.214Z,6.60
2023-01-03T01:28:44.299Z,6.60
2023-01-03T01:31:15.372Z,6.60
2023-01-03T01:33:42.797Z,6.50
2023-01-03T01:36:20.723Z,6.50
2023-01-03T01:38:52.869Z,6.50
2023-01-03T01:41:39.578Z,6.50
2023-01-03T01:44:25.613Z,6.50
2023-01-03T01:46:52.955Z,6.40
2023-01-03T01:49:24.708Z,6.50
2023-01-03T01:51:51.782Z,6.40
2023-01-03T01:54:19.500Z,6.40
2023-01-03T01:56:52.915Z,6.40
2023-01-03T01:59:19.638Z,6.40
2023-01-03T02:01:48.389Z,6.40
2023-01-03T02:04:23.116Z,6.40
2023-01-03T02:06:51.005Z,6.30
2023-01-03T02:09:18.122Z,6.30
2023-01-03T02:11:50.770Z,6.20
2023-01-03T02:14:32.618Z,6.20
2023-01-03T02:17:40.323Z,6.20
2023-01-03T02:20:19.018Z,6.20
2023-01-03T02:23:17.183Z,6.10
2023-01-03T02:26:08.658Z,6.10
2023-01-03T02:28:53.420Z,6.10
2023-01-03T02:31:42.165Z,6.10
2023-01-03T02:34:36.926Z,6.10
2023-01-03T02:37:17.170Z,6.10
2023-01-03T02:39:48.721Z,6.00
2023-01-03T02:42:44.489Z,6.00
2023-01-03T02:45:20.277Z,5.90
2023-01-03T02:48:11.347Z,5.90
2023-01-03T02:50:47.632Z,5.80
2023-01-03T02:53:19.371Z,5.80
2023-01-03T02:55:49.524Z,5.70
2023-01-03T02:58:22.223Z,5.70
2023-01-03T03:00:53.458Z,5.60
2023-01-03T03:03:25.404Z,5.70
2023-01-03T03:05:57.773Z,5.60
2023-01-03T03:08:24.558Z,5.60
2023-01-03T03:11:13.199Z,5.60
2023-01-03T03:14:04.561Z,5.60
2023-01-03T03:16:51.686Z,5.50
2023-01-03T03:19:53.990Z,5.50
2023-01-03T03:23:00.915Z,5.50
2023-01-03T03:25:37.729Z,5.50
2023-01-03T03:28:33.286Z,5.60
2023-01-03T03:31:14.767Z,5.60
2023-01-03T03:34:03.589Z,5.70
2023-01-03T03:36:46.494Z,5.70
2023-01-03T03:39:34.276Z,5.80
2023-01-03T03:42:47.446Z,5.80
2023-01-03T03:45:39.793Z,5.80
2023-01-03T03:48:19.753Z,5.80
2023-01-03T03:51:14.185Z,5.80
2023-01-03T03:53:44.062Z,5.70
2023-01-03T03:56:14.362Z,5.70
2023-01-03T03:58:43.450Z,5.70
2023-01-03T04:01:14.118Z,5.60
2023-01-03T04:03:44.281Z,5.60
2023-01-03T04:06:17.389Z,5.60
2023-01-03T04:08:44.598Z,5.50
2023-01-03T04:11:11.491Z,5.50
2023-01-03T04:13:38.852Z,5.50
2023-01-03T04:16:07.127Z,5.50
2023-01-03T04:18:34.473Z,5.50
2023-01-03T04:21:01.134Z,5.50
2023-01-03T04:23:27.818Z,5.40
2023-01-03T04:25:54.487Z,5.40
2023-01-03T04:28:21.214Z,5.50
2023-01-03T04:30:48.150Z,5.40
2023-01-03T04:33:15.167Z,5.40
2023-01-03T04:35:41.916Z,5.40
2023-01-03T04:38:08.811Z,5.40
2023-01-03T04:40:38.489Z,5.40
2023-01-03T04:43:23.845Z,5.40
2023-01-03T04:45:51.402Z,5.40
2023-01-03T04:48:18.418Z,5.50
2023-01-03T04:50:53.387Z,5.50
2023-01-03T04:53:20.765Z,5.50
2023-01-03T04:55:48.338Z,5.50
2023-01-03T04:58:15.241Z,5.50
2023-01-03T05:00:42.014Z,5.50
2023-01-03T05:03:08.785Z,5.50
2023-01-03T05:05:37.784Z,5.50
2023-01-03T05:08:06.499Z,5.40
2023-01-03T05:10:33.494Z,5.40
2023-01-03T05:13:00.781Z,5.40
2023-01-03T05:15:34.448Z,5.30
2023-01-03T05:18:01.197Z,5.30
2023-01-03T05:20:48.777Z,5.30
2023-01-03T05:23:35.474Z,5.30
2023-01-03T05:26:10.075Z,5.20
2023-01-03T05:28:37.097Z,5.30
2023-01-03T05:31:03.862Z,5.20
2023-01-03T05:33:30.645Z,5.20
2023-01-03T05:35:58.179Z,5.20
2023-01-03T05:38:25.017Z,5.20
2023-01-03T05:40:51.787Z,5.20
2023-01-03T05:43:18.706Z,5.10
2023-01-03T05:45:52.796Z,5.10
2023-01-03T05:48:21.148Z,5.10
2023-01-03T05:50:49.833Z,5.00
2023-01-03T05:53:17.075Z,5.00
2023-01-03T05:55:43.866Z,5.00
2023-01-03T05:58:11.845Z,5.00
2023-01-03T06:00:38.620Z,4.90
2023-01-03T06:03:05.411Z,4.90
2023-01-03T06:05:32.140Z,4.80
2023-01-03T06:08:02.670Z,4.70
2023-01-03T06:10:29.800Z,4.70
2023-01-03T06:12:57.214Z,4.70
2023-01-03T06:15:24.024Z,4.60
2023-01-03T06:18:02.234Z,4.60
2023-01-03T06:20:29.523Z,4.50
2023-01-03T06:22:56.921Z,4.50
2023-01-03T06:25:23.733Z,4.50
2023-01-03T06:27:50.682Z,4.40
2023-01-03T06:30:17.593Z,4.40
2023-01-03T06:32:45.651Z,4.40
2023-01-03T06:35:12.714Z,4.30
2023-01-03T06:37:39.777Z,4.30
2023-01-03T06:40:07.456Z,4.20
2023-01-03T06:42:42.559Z,4.20
2023-01-03T06:45:29.936Z,4.20
2023-01-03T06:48:15.598Z,4.20
2023-01-03T06:51:01.889Z,4.10
2023-01-03T06:53:35.706Z,4.10
2023-01-03T06:56:03.387Z,4.10
2023-01-03T06:58:30.181Z,4.00
2023-01-03T07:00:58.397Z,4.00
2023-01-03T07:03:25.300Z,4.00
2023-01-03T07:05:52.408Z,4.00
2023-01-03T07:08:19.244Z,4.00
2023-01-03T07:10:46.212Z,4.00
2023-01-03T07:13:31.826Z,4.00
2023-01-03T07:15:58.999Z,3.90
2023-01-03T07:18:26.378Z,4.00
2023-01-03T07:20:53.126Z,4.00
2023-01-03T07:23:19.818Z,4.00
2023-01-03T07:25:46.591Z,4.10
2023-01-03T07:28:14.874Z,4.10
2023-01-03T07:30:43.971Z,4.00
2023-01-03T07:33:13.101Z,4.00
2023-01-03T07:35:39.792Z,4.00
2023-01-03T07:38:07.406Z,4.00
2023-01-03T07:40:34.303Z,4.00
2023-01-03T07:43:19.863Z,4.00
2023-01-03T07:45:47.650Z,3.90
2023-01-03T07:48:14.956Z,3.90
2023-01-03T07:50:42.263Z,3.90
2023-01-03T07:53:10.062Z,3.80
2023-01-03T07:55:37.685Z,3.90
2023-01-03T07:58:04.601Z,3.80
2023-01-03T08:00:31.486Z,3.90
2023-01-03T08:02:58.455Z,3.90
2023-01-03T08:05:25.917Z,3.90
2023-01-03T08:07:53.255Z,3.90
2023-01-03T08:10:39.738Z,3.90
2023-01-03T08:13:18.408Z,4.00
2023-01-03T08:15:49.482Z,4.00
2023-01-03T08:18:19.183Z,3.90
2023-01-03T08:20:46.455Z,4.00
2023-01-03T08:23:13.361Z,3.90
2023-01-03T08:25:40.450Z,3.90
2023-01-03T08:28:08.860Z,4.00
2023-01-03T08:30:41.402Z,4.00
2023-01-03T08:33:10.743Z,4.10
2023-01-03T08:35:39.411Z,4.10
2023-01-03T08:38:10.982Z,4.20
2023-01-03T08:40:42.173Z,4.20
2023-01-03T08:43:10.928Z,4.10
2023-01-03T08:45:38.996Z,4.20
2023-01-03T08:48:07.555Z,4.30
2023-01-03T08:50:34.990Z,4.40
2023-01-03T08:53:01.910Z,4.50
2023-01-03T08:55:28.647Z,4.60
2023-01-03T08:57:55.330Z,4.60
2023-01-03T09:00:22.153Z,4.80
2023-01-03T09:02:49.107Z,4.70
2023-01-03T09:05:16.917Z,4.80
2023-01-03T09:07:43.924Z,4.90
2023-01-03T09:10:11.530Z,4.90
2023-01-03T09:12:38.309Z,5.00
2023-01-03T09:15:05.703Z,5.10
2023-01-03T09:17:32.411Z,5.20
2023-01-03T09:19:59.198Z,5.20
2023-01-03T09:22:26.004Z,5.30
2023-01-03T09:24:52.847Z,5.40
2023-01-03T09:27:19.576Z,5.50
2023-01-03T09:29:46.782Z,5.50
2023-01-03T09:32:13.634Z,5.60
2023-01-03T09:34:40.354Z,5.70
2023-01-03T09:37:07.060Z,5.70
2023-01-03T09:39:33.809Z,5.80
2023-01-03T09:42:20.013Z,5.90
2023-01-03T09:44:47.090Z,6.00
2023-01-03T09:47:24.007Z,6.10
2023-01-03T09:50:26.564Z,6.30
2023-01-03T09:53:03.207Z,6.40
2023-01-03T09:56:10.063Z,6.40
2023-01-03T09:58:55.623Z,6.50
2023-01-03T10:01:49.839Z,6.60
2023-01-03T10:04:43.990Z,6.70
2023-01-03T10:07:10.691Z,6.90
2023-01-03T10:10:12.294Z,7.10
2023-01-03T10:13:07.765Z,7.30
2023-01-03T10:16:01.525Z,7.20
2023-01-03T10:18:49.812Z,7.40
2023-01-03T10:21:42.054Z,7.50
2023-01-03T10:24:24.558Z,7.60
2023-01-03T10:27:25.068Z,7.60
2023-01-03T10:29:56.658Z,7.90
2023-01-03T10:32:32.271Z,8.20
2023-01-03T10:35:03.222Z,8.10
2023-01-03T10:37:29.905Z,8.30
2023-01-03T10:40:04.563Z,8.60
2023-01-03T10:42:33.998Z,9.10
2023-01-03T10:45:05.395Z,9.30
2023-01-03T10:47:32.178Z,9.40
2023-01-03T10:50:03.980Z,9.20
2023-01-03T10:52:38.394Z,9.30
2023-01-03T10:55:17.068Z,9.10
2023-01-03T10:57:49.617Z,9.00
2023-01-03T11:00:26.923Z,9.30
2023-01-03T11:02:54.962Z,9.30
2023-01-03T11:05:24.874Z,9.40
2023-01-03T11:08:01.580Z,9.00
2023-01-03T11:10:49.133Z,9.00
2023-01-03T11:13:29.170Z,8.90
2023-01-03T11:15:58.255Z,8.90
2023-01-03T11:18:29.002Z,8.70
2023-01-03T11:21:26.165Z,8.80
2023-01-03T11:24:06.826Z,9.00
2023-01-03T11:26:51.081Z,9.40
2023-01-03T11:29:35.513Z,9.60
2023-01-03T11:32:19.412Z,10.00
2023-01-03T11:35:24.776Z,10.30
2023-01-03T11:38:16.652Z,10.30
2023-01-03T11:40:46.379Z,10.80
2023-01-03T11:43:35.189Z,10.80
2023-01-03T11:46:30.143Z,10.80
2023-01-03T11:49:30.827Z,11.10
2023-01-03T11:52:19.776Z,10.70
2023-01-03T11:54:58.386Z,11.00
2023-01-03T11:57:51.346Z,11.70
2023-01-03T12:00:20.814Z,11.80
2023-01-03T12:02:47.670Z,12.30
2023-01-03T12:05:45.585Z,12.30
2023-01-03T12:08:42.142Z,12.10
2023-01-03T12:11:43.049Z,12.00
2023-01-03T12:14:17.861Z,12.20
2023-01-03T12:17:07.912Z,11.90
2023-01-03T12:19:46.010Z,12.30
2023-01-03T12:22:37.451Z,12.30
2023-01-03T12:25:19.232Z,11.80
2023-01-03T12:28:00.409Z,11.10
2023-01-03T12:30:35.473Z,11.20
2023-01-03T12:33:22.413Z,10.40
2023-01-03T12:36:20.899Z,9.90
2023-01-03T12:39:01.372Z,10.00
2023-01-03T12:41:46.184Z,9.80
2023-01-03T12:44:24.442Z,10.10
2023-01-03T12:46:55.208Z,10.50
2023-01-03T12:50:03.465Z,10.30
2023-01-03T12:52:32.418Z,10.60
2023-01-03T12:55:08.443Z,10.20
2023-01-03T12:57:50.640Z,10.40
2023-01-03T13:00:41.233Z,10.90
2023-01-03T13:03:22.600Z,11.10
2023-01-03T13:06:17.391Z,11.80
2023-01-03T13:08:53.227Z,11.60
2023-01-03T13:11:41.461Z,11.10
2023-01-03T13:14:23.313Z,11.10
2023-01-03T13:16:52.129Z,11.10
2023-01-03T13:19:21.843Z,11.70
2023-01-03T13:21:51.433Z,12.00
2023-01-03T13:24:40.062Z,11.60
2023-01-03T13:27:24.783Z,11.00
2023-01-03T13:29:58.594Z,11.20
2023-01-03T13:32:36.261Z,11.10
2023-01-03T13:35:04.664Z,11.10
2023-01-03T13:37:46.393Z,11.20
2023-01-03T13:40:52.083Z,11.50
2023-01-03T13:43:21.768Z,11.60
2023-01-03T13:45:49.845Z,11.20
2023-01-03T13:48:28.478Z,11.00
2023-01-03T13:51:17.075Z,10.70
2023-01-03T13:54:12.999Z,10.30
2023-01-03T13:56:45.476Z,10.00
2023-01-03T13:59:15.144Z,10.00
2023-01-03T14:01:47.995Z,9.80
2023-01-03T14:04:38.629Z,9.80
2023-01-03T14:07:37.798Z,9.50
2023-01-03T14:10:39.487Z,9.50
2023-01-03T14:13:08.881Z,9.50
2023-01-03T14:15:35.670Z,9.40
2023-01-03T14:18:21.567Z,9.40
2023-01-03T14:20:55.180Z,10.10
2023-01-03T14:23:58.450Z,9.70
2023-01-03T14:26:16.378Z,9.20
2023-01-03T14:28:51.599Z,9.10
2023-01-03T14:31:25.400Z,9.00
2023-01-03T14:34:01.296Z,9.00
2023-01-03T14:36:28.543Z,8.90
2023-01-03T14:39:00.813Z,8.80
2023-01-03T14:41:37.883Z,8.80
2023-01-03T14:44:16.511Z,8.80
2023-01-03T14:46:55.601Z,8.70
2023-01-03T14:49:31.451Z,8.70
2023-01-03T14:52:26.294Z,8.50
2023-01-03T14:55:03.531Z,8.40
2023-01-03T14:57:31.176Z,8.40
2023-01-03T15:00:01.140Z,8.30
2023-01-03T15:02:34.175Z,8.30
2023-01-03T15:05:02.591Z,8.20
2023-01-03T15:07:37.379Z,8.20
2023-01-03T15:10:31.215Z,8.30
2023-01-03T15:13:04.627Z,8.20
2023-01-03T15:15:38.258Z,8.10
2023-01-03T15:18:09.716Z,8.00
2023-01-03T15:20:39.909Z,7.80
2023-01-03T15:23:07.160Z,7.80
2023-01-03T15:25:41.946Z,7.70
2023-01-03T15:28:29.813Z,7.60
2023-01-03T15:31:11.780Z,7.50
2023-01-03T15:33:38.644Z,7.30
2023-01-03T15:36:16.429Z,7.10
2023-01-03T15:38:47.246Z,6.90
2023-01-03T15:41:45.155Z,6.80
2023-01-03T15:44:12.723Z,6.60
2023-01-03T15:46:45.291Z,6.50
2023-01-03T15:49:17.949Z,6.40
2023-01-03T15:51:44.690Z,6.30
2023-01-03T15:54:13.689Z,6.10
2023-01-03T15:57:00.895Z,5.90
2023-01-03T15:59:29.938Z,5.80
2023-01-03T16:01:57.132Z,5.50
2023-01-03T16:04:24.276Z,5.50
2023-01-03T16:06:52.741Z,5.40
2023-01-03T16:09:20.702Z,5.40
2023-01-03T16:11:51.629Z,5.20
2023-01-03T16:14:27.911Z,5.10
2023-01-03T16:16:56.912Z,5.00
2023-01-03T16:19:25.839Z,4.90
2023-01-03T16:22:32.856Z,4.80
2023-01-03T16:24:42.022Z,4.70
2023-01-03T16:27:17.111Z,4.50
2023-01-03T16:29:43.983Z,4.50
2023-01-03T16:32:24.652Z,4.40
2023-01-03T16:34:52.015Z,4.30
2023-01-03T16:37:18.781Z,4.20
2023-01-03T16:39:48.328Z,4.20
2023-01-03T16:42:15.826Z,4.10
2023-01-03T16:44:46.538Z,4.00
2023-01-03T16:47:22.659Z,4.00
2023-01-03T16:50:01.969Z,3.80
2023-01-03T16:52:37.524Z,3.80
2023-01-03T16:55:16.321Z,3.80
2023-01-03T16:57:44.448Z,3.60
2023-01-03T17:00:18.769Z,3.60
2023-01-03T17:02:46.334Z,3.50
2023-01-03T17:05:14.374Z,3.40
2023-01-03T17:07:43.635Z,3.30
2023-01-03T17:10:27.556Z,3.30
2023-01-03T17:12:55.705Z,3.20
2023-01-03T17:15:22.385Z,3.20
2023-01-03T17:17:49.130Z,3.20
2023-01-03T17:20:20.442Z,3.20
2023-01-03T17:22:51.729Z,3.20
2023-01-03T17:25:18.655Z,3.10
2023-01-03T17:27:58.263Z,3.10
2023-01-03T17:30:27.816Z,3.00
2023-01-03T17:32:55.238Z,3.00
2023-01-03T17:35:22.049Z,2.90
2023-01-03T17:38:24.124Z,2.80
2023-01-03T17:40:36.956Z,2.70
2023-01-03T17:43:03.822Z,2.70
2023-01-03T17:45:49.346Z,2.60
2023-01-03T17:48:34.837Z,2.60
2023-01-03T17:51:02.153Z,2.50
2023-01-03T17:53:29.487Z,2.40
2023-01-03T17:55:56.305Z,2.20
2023-01-03T17:58:32.778Z,2.20
2023-01-03T18:01:00.059Z,2.10
2023-01-03T18:03:27.237Z,2.20
2023-01-03T18:05:54.391Z,2.10
2023-01-03T18:08:22.822Z,2.10
2023-01-03T18:10:51.808Z,2.00
2023-01-03T18:13:26.931Z,2.00
2023-01-03T18:15:54.990Z,2.00
2023-01-03T18:18:24.131Z,2.00
2023-01-03T18:20:51.665Z,1.90
2023-01-03T18:23:29.595Z,1.80
2023-01-03T18:26:02.827Z,1.80
2023-01-03T18:28:29.661Z,1.70
2023-01-03T18:30:57.265Z,1.70
2023-01-03T18:33:24.924Z,1.60
2023-01-03T18:35:52.923Z,1.60
2023-01-03T18:38:24.486Z,1.50
2023-01-03T18:40:53.432Z,1.50
2023-01-03T18:43:22.914Z,1.40
2023-01-03T18:45:50.642Z,1.40
2023-01-03T18:48:19.932Z,1.40
2023-01-03T18:50:55.679Z,1.30
2023-01-03T18:53:28.459Z,1.30
2023-01-03T18:55:55.547Z,1.20
2023-01-03T18:58:27.971Z,1.10
2023-01-03T19:00:54.700Z,1.10
2023-01-03T19:03:24.539Z,1.10
2023-01-03T19:05:53.995Z,1.10
2023-01-03T19:08:23.033Z,1.10
2023-01-03T19:10:50.484Z,1.00
2023-01-03T19:13:52.003Z,1.00
2023-01-03T19:16:26.628Z,1.00
2023-01-03T19:18:53.889Z,1.00
2023-01-03T19:21:21.961Z,1.00
2023-01-03T19:24:01.530Z,0.90
2023-01-03T19:26:35.619Z,0.90
2023-01-03T19:29:07.463Z,0.80
2023-01-03T19:31:45.965Z,0.70
2023-01-03T19:34:39.123Z,0.70
2023-01-03T19:37:05.928Z,0.60
2023-01-03T19:39:37.413Z,0.60
2023-01-03T19:42:24.395Z,0.60
2023-01-03T19:44:51.317Z,0.60
2023-01-03T19:47:20.523Z,0.60
2023-01-03T19:49:48.171Z,0.50
2023-01-03T19:52:16.461Z,0.50
2023-01-03T19:54:43.475Z,0.40
2023-01-03T19:57:21.083Z,0.40
2023-01-03T19:59:52.652Z,0.40
2023-01-03T20:02:40.791Z,0.30
2023-01-03T20:05:20.173Z,0.30
2023-01-03T20:07:47.877Z,0.30
2023-01-03T20:10:21.159Z,0.20
2023-01-03T20:12:50.177Z,0.20
2023-01-03T20:15:25.724Z,0.20
2023-01-03T20:17:53.170Z,0.10
2023-01-03T20:20:20.697Z,0.10
2023-01-03T20:23:06.381Z,0.00
2023-01-03T20:25:35.452Z,0.00
2023-01-03T20:28:03.179Z,-0.10
2023-01-03T20:30:32.514Z,-0.10
2023-01-03T20:32:59.350Z,-0.10
2023-01-03T20:38:17.159Z,-0.10
2023-01-03T20:40:43.879Z,-0.10
2023-01-03T20:43:14.530Z,-0.10
2023-01-03T20:45:41.513Z,-0.20
2023-01-03T20:48:24.755Z,-0.20
2023-01-03T20:50:52.616Z,-0.20
2023-01-03T20:53:22.065Z,-0.20
2023-01-03T20:55:49.400Z,-0.30
2023-01-03T20:58:18.151Z,-0.30
2023-01-03T21:00:45.777Z,-0.40
2023-01-03T21:03:12.867Z,-0.30
2023-01-03T21:05:39.844Z,-0.40
2023-01-03T21:08:30.714Z,-0.40
2023-01-03T21:10:57.492Z,-0.40
2023-01-03T21:13:24.164Z,-0.40
2023-01-03T21:15:51.336Z,-0.40
2023-01-03T21:18:18.738Z,-0.40
2023-01-03T21:20:45.972Z,-0.50
2023-01-03T21:23:20.491Z,-0.50
2023-01-03T21:25:47.498Z,-0.50
2023-01-03T21:28:15.079Z,-0.50
2023-01-03T21:30:42.489Z,-0.50
2023-01-03T21:33:17.820Z,-0.50
2023-01-03T21:35:44.846Z,-0.50
2023-01-03T21:38:12.428Z,-0.50
2023-01-03T21:40:39.155Z,-0.50
2023-01-03T21:43:06.187Z,-0.50
2023-01-03T21:45:39.749Z,-0.50
2023-01-03T21:48:10.485Z,-0.50
2023-01-03T21:50:42.750Z,-0.40
2023-01-03T21:53:22.749Z,-0.50
2023-01-03T21:55:50.314Z,-0.40
2023-01-03T21:58:18.994Z,-0.40
2023-01-03T22:00:45.826Z,-0.40
2023-01-03T22:03:36.040Z,-0.40
2023-01-03T22:06:11.225Z,-0.40
2023-01-03T22:08:39.849Z,-0.30
2023-01-03T22:11:08.003Z,-0.30
2023-01-03T22:13:36.233Z,-0.40
2023-01-03T22:16:07.837Z,-0.30
2023-01-03T22:18:35.110Z,-0.30
2023-01-03T22:21:03.471Z,-0.30
2023-01-03T22:23:30.963Z,-0.30
2023-01-03T22:26:02.611Z,-0.30
2023-01-03T22:28:33.968Z,-0.40
2023-01-03T22:31:00.840Z,-0.30
2023-01-03T22:33:27.619Z,-0.40
2023-01-03T22:35:54.289Z,-0.30
2023-01-03T22:38:21.001Z,-0.30
2023-01-03T22:40:47.752Z,-0.40
2023-01-03T22:43:14.769Z,-0.30
2023-01-03T22:45:41.545Z,-0.30
2023-01-03T22:48:08.352Z,-0.30
2023-01-03T22:50:35.090Z,-0.30
2023-01-03T22:53:01.755Z,-0.30
2023-01-03T22:55:32.234Z,-0.40
2023-01-03T22:57:59.483Z,-0.30
2023-01-03T23:00:26.190Z,-0.30
2023-01-03T23:02:53.059Z,-0.20
2023-01-03T23:05:20.454Z,-0.20
2023-01-03T23:07:47.131Z,-0.30
2023-01-03T23:10:13.972Z,-0.30
2023-01-03T23:12:58.911Z,-0.30
2023-01-03T23:15:28.536Z,-0.30
2023-01-03T23:17:58.137Z,-0.30
2023-01-03T23:20:31.553Z,-0.20
2023-01-03T23:23:03.015Z,-0.20
2023-01-03T23:25:35.609Z,-0.40
2023-01-03T23:28:02.294Z,-0.40
2023-01-03T23:30:29.085Z,-0.30
2023-01-03T23:32:56.262Z,-0.30
2023-01-03T23:35:23.026Z,-0.40
2023-01-03T23:37:49.763Z,-0.40
2023-01-03T23:40:16.655Z,-0.40
2023-01-03T23:42:43.442Z,-0.50
2023-01-03T23:45:10.595Z,-0.50
2023-01-03T23:47:37.277Z,-0.40
2023-01-03T23:50:04.236Z,-0.40
2023-01-03T23:52:32.988Z,-0.40
2023-01-03T23:55:02.623Z,-0.40
2023-01-03T23:57:33.617Z,-0.60
